Time;durP1;ratioP1;P1;durP2;ratioP2;P2;SDS_P1;SDS_P2;PMS_P1;PMS_P2;Temp;Humidity;BMP_temperature;BMP_pressure;BME280_temperature;BME280_humidity;BME280_pressure;Samples;Min_cycle;Max_cycle;Signal;HPM_P1;HPM_P2
2021/12/18 00:01:47;;;;;;;3.92;2.45;;;;;;;15.86;43.51;94956.06;5076600;22;20033;-92
2021/12/18 00:04:21;;;;;;;4.25;2.42;;;;;;;15.84;43.51;94955.75;5184907;22;20045;-94
2021/12/18 00:06:58;;;;;;;2.78;2.38;;;;;;;15.84;43.14;94963.94;5068378;22;20045;-92
2021/12/18 00:15:03;;;;;;;3.28;2.20;;;;;;;15.78;43.43;94952.16;5113703;27;20428;-92
2021/12/18 00:17:38;;;;;;;3.08;2.25;;;;;;;15.79;43.36;94956.38;5218501;22;20071;-91
2021/12/18 00:20:05;;;;;;;3.72;2.03;;;;;;;15.84;43.52;94955.75;5023035;23;20038;-91
2021/12/18 00:22:35;;;;;;;2.90;2.17;;;;;;;15.81;43.48;94953.94;5021547;28;20064;-93
2021/12/18 00:25:05;;;;;;;2.88;2.05;;;;;;;15.83;43.51;94956.22;5015018;28;20035;-92
2021/12/18 00:27:31;;;;;;;4.00;2.00;;;;;;;15.86;43.42;94960.75;5067493;23;20040;-91
2021/12/18 00:29:56;;;;;;;2.53;1.90;;;;;;;15.81;43.74;94959.41;5048845;22;20109;-93
2021/12/18 00:32:25;;;;;;;3.00;2.20;;;;;;;15.81;43.22;94966.81;5025710;23;20049;-92
2021/12/18 00:34:50;;;;;;;2.70;2.13;;;;;;;15.78;43.65;94979.41;4982760;28;20045;-92
2021/12/18 00:37:23;;;;;;;2.67;1.98;;;;;;;15.79;43.40;94972.00;5000378;28;20043;-92
2021/12/18 00:40:00;;;;;;;3.03;2.30;;;;;;;15.80;43.34;94974.25;5009798;28;20034;-91
2021/12/18 00:45:06;;;;;;;2.85;2.30;;;;;;;15.80;43.41;94987.91;5009409;28;20117;-93
2021/12/18 00:47:32;;;;;;;3.45;1.83;;;;;;;15.80;43.39;95001.53;5008465;28;20049;-91
2021/12/18 00:49:59;;;;;;;2.33;1.85;;;;;;;15.80;43.60;95008.97;5008558;28;20086;-92
2021/12/18 00:52:24;;;;;;;3.72;2.58;;;;;;;15.83;43.52;95006.06;4983168;28;20023;-93
2021/12/18 00:54:51;;;;;;;4.38;2.13;;;;;;;15.83;43.51;95019.69;4961089;28;20033;-94
2021/12/18 00:57:25;;;;;;;2.90;2.05;;;;;;;15.81;43.52;95026.81;5008119;28;20042;-91
2021/12/18 00:59:53;;;;;;;2.88;2.17;;;;;;;15.80;43.58;95025.31;4944173;28;20050;-93
2021/12/18 01:02:20;;;;;;;2.65;2.20;;;;;;;15.81;43.22;95015.91;4913456;29;20107;-91
2021/12/18 01:04:45;;;;;;;3.00;2.40;;;;;;;15.86;43.42;95012.56;5000794;23;20046;-92
2021/12/18 01:07:19;;;;;;;2.22;1.75;;;;;;;15.82;43.28;95006.50;5031420;28;20061;-91
2021/12/18 01:12:36;;;;;;;2.58;1.90;;;;;;;15.82;43.48;95001.06;4988242;28;20050;-95
2021/12/18 01:15:19;;;;;;;2.90;2.28;;;;;;;15.82;43.26;95003.78;4949849;28;20050;-92
2021/12/18 01:23:28;;;;;;;2.55;1.77;;;;;;;15.78;43.20;95012.13;4929176;29;20120;-93
2021/12/18 01:25:58;;;;;;;2.20;1.90;;;;;;;15.79;43.54;95008.19;5011625;23;20045;-91
2021/12/18 01:28:24;;;;;;;3.80;2.23;;;;;;;15.79;43.29;94993.81;5053794;28;20044;-92
2021/12/18 01:30:50;;;;;;;2.85;2.22;;;;;;;15.77;43.49;94996.97;5023206;28;20052;-92
2021/12/18 01:33:24;;;;;;;2.30;2.00;;;;;;;15.78;43.31;95001.22;5068626;28;20041;-91
2021/12/18 01:35:50;;;;;;;2.72;2.17;;;;;;;15.78;43.35;94998.50;5037933;28;20500;-91
2021/12/18 01:38:15;;;;;;;3.92;2.25;;;;;;;15.77;43.48;94999.72;5038042;28;20040;-91
2021/12/18 01:40:41;;;;;;;3.10;2.00;;;;;;;15.76;43.31;94995.47;5034947;22;20060;-91
2021/12/18 01:46:08;;;;;;;3.33;2.22;;;;;;;15.78;43.04;94987.59;5018801;28;20069;-91
2021/12/18 01:51:32;;;;;;;2.67;2.10;;;;;;;15.76;43.15;94985.31;5022842;23;20053;-94
2021/12/18 01:53:59;;;;;;;2.63;1.83;;;;;;;15.74;43.39;94990.47;5013254;28;20030;-92
2021/12/18 01:56:34;;;;;;;2.33;1.85;;;;;;;15.75;43.56;94989.25;4990161;28;20057;-93
2021/12/18 01:59:08;;;;;;;3.38;2.20;;;;;;;15.74;43.49;94974.09;5008417;28;20095;-92
2021/12/18 02:01:34;;;;;;;2.60;2.20;;;;;;;15.77;43.16;94986.06;4935419;28;20466;-91
2021/12/18 02:04:00;;;;;;;3.28;1.90;;;;;;;15.81;43.53;94983.94;4937139;28;20046;-90
2021/12/18 02:06:26;;;;;;;2.08;1.70;;;;;;;15.77;43.15;94984.13;4935481;28;20039;-95
2021/12/18 02:08:51;;;;;;;2.55;2.03;;;;;;;15.80;43.23;94973.50;4950071;28;20050;-95
2021/12/18 02:11:28;;;;;;;2.20;1.77;;;;;;;15.80;43.36;94985.16;4964208;28;20073;-93
2021/12/18 02:19:35;;;;;;;3.17;2.15;;;;;;;15.76;43.22;94973.66;4982899;28;20121;-92
2021/12/18 02:22:02;;;;;;;2.67;2.20;;;;;;;15.76;43.55;94970.94;4940233;28;20047;-90
2021/12/18 02:24:30;;;;;;;2.63;1.70;;;;;;;15.75;43.23;94975.63;4972949;28;20047;-91
2021/12/18 02:26:57;;;;;;;2.72;2.08;;;;;;;15.79;43.01;94967.28;4976512;28;20031;-91
2021/12/18 02:29:35;;;;;;;2.33;1.92;;;;;;;15.75;43.40;94961.22;4966880;28;20043;-93
2021/12/18 02:32:05;;;;;;;2.65;1.60;;;;;;;15.76;43.10;94965.47;4952613;28;20078;-94
2021/12/18 02:34:31;;;;;;;2.30;2.03;;;;;;;15.71;43.62;94961.38;4999262;28;20074;-92
2021/12/18 02:37:05;;;;;;;3.35;2.30;;;;;;;15.77;43.37;94943.22;4971113;28;20043;-91
2021/12/18 02:39:45;;;;;;;3.72;2.45;;;;;;;15.76;43.30;94949.13;4974792;28;20039;-93
2021/12/18 02:42:19;;;;;;;3.28;2.03;;;;;;;15.80;43.21;94957.16;4990645;28;20035;-94
2021/12/18 02:44:45;;;;;;;2.90;2.10;;;;;;;15.77;43.23;94967.75;4985413;28;20022;-94
2021/12/18 02:47:12;;;;;;;2.53;2.03;;;;;;;15.74;43.39;94959.72;4970581;28;20058;-94
2021/12/18 02:49:42;;;;;;;2.85;2.10;;;;;;;15.74;43.30;94959.72;4973307;28;20057;-94
2021/12/18 02:52:07;;;;;;;2.58;2.22;;;;;;;15.77;43.32;94969.72;4987538;28;20065;-93
2021/12/18 02:54:33;;;;;;;2.75;2.13;;;;;;;15.75;43.63;94966.69;4965378;28;20038;-93
2021/12/18 02:56:58;;;;;;;2.50;1.88;;;;;;;15.72;43.20;94973.03;4974665;28;20037;-93
2021/12/18 02:59:25;;;;;;;3.05;2.10;;;;;;;15.79;43.01;94972.00;4988687;28;20102;-92
2021/12/18 03:01:50;;;;;;;2.88;2.00;;;;;;;15.75;43.26;94972.91;5002887;28;20062;-94
2021/12/18 03:04:28;;;;;;;2.22;1.83;;;;;;;15.75;43.17;94980.31;4984571;28;20042;-92
2021/12/18 03:06:59;;;;;;;2.97;1.90;;;;;;;15.73;43.53;94986.22;4992808;28;20050;-94
2021/12/18 03:19:07;;;;;;;2.60;1.77;;;;;;;15.78;43.13;94979.41;5006946;28;20042;-90
2021/12/18 03:25:38;;;;;;;3.78;2.00;;;;;;;15.76;43.49;94976.38;5005610;28;20034;-92
2021/12/18 03:28:04;;;;;;;2.47;2.03;;;;;;;15.80;42.82;94966.09;4932556;29;20036;-92
2021/12/18 03:30:42;;;;;;;3.05;2.00;;;;;;;15.81;43.32;94972.25;4901463;29;20153;-92
2021/12/18 03:33:07;;;;;;;2.42;2.00;;;;;;;15.80;43.57;94973.50;4917691;29;20050;-95
2021/12/18 03:35:33;;;;;;;2.47;1.77;;;;;;;15.79;42.95;94966.53;4915444;29;20539;-93
2021/12/18 03:37:58;;;;;;;2.60;1.90;;;;;;;15.75;43.26;94977.59;4916582;29;20080;-95
2021/12/18 03:40:24;;;;;;;2.45;1.95;;;;;;;15.76;43.31;94962.75;4917123;29;20043;-93
2021/12/18 03:42:59;;;;;;;2.78;2.03;;;;;;;15.74;43.20;94970.63;4915856;29;20083;-93
2021/12/18 03:45:24;;;;;;;2.92;1.85;;;;;;;15.74;43.05;94970.63;4916746;29;20040;-91
2021/12/18 03:47:51;;;;;;;2.75;1.92;;;;;;;15.73;43.43;94961.69;4913716;29;20075;-92
2021/12/18 03:50:16;;;;;;;3.22;2.22;;;;;;;15.77;43.58;94964.25;4916657;29;20043;-91
2021/12/18 03:52:42;;;;;;;2.10;1.73;;;;;;;15.75;43.33;94956.53;4901594;29;20043;-91
2021/12/18 03:55:10;;;;;;;2.92;2.00;;;;;;;15.75;43.19;94958.50;4891956;29;20040;-92
2021/12/18 03:57:36;;;;;;;3.13;2.20;;;;;;;15.79;43.20;94958.34;4949518;29;20047;-91
2021/12/18 04:00:02;;;;;;;2.58;1.63;;;;;;;15.73;43.23;94961.69;4985559;28;20057;-93
2021/12/18 04:02:27;;;;;;;3.45;1.85;;;;;;;15.78;43.23;94963.06;4985182;28;20154;-92
2021/12/18 04:04:53;;;;;;;2.35;1.77;;;;;;;15.82;43.12;94955.44;4969421;28;20062;-92
2021/12/18 04:07:19;;;;;;;2.90;2.10;;;;;;;15.82;43.05;94947.28;4995701;28;20042;-92
2021/12/18 04:09:47;;;;;;;2.88;1.95;;;;;;;15.82;43.09;94941.06;4984193;28;20064;-91
2021/12/18 04:12:13;;;;;;;2.33;1.65;;;;;;;15.81;43.22;94942.28;5005618;28;20042;-92
2021/12/18 04:14:38;;;;;;;2.03;1.70;;;;;;;15.82;43.18;94947.28;4974719;28;20042;-93
2021/12/18 04:17:05;;;;;;;3.78;1.70;;;;;;;15.80;43.21;94946.25;4990643;28;20140;-91
2021/12/18 04:19:31;;;;;;;2.10;1.67;;;;;;;15.73;43.15;94950.78;4985059;28;20034;-93
2021/12/18 04:21:56;;;;;;;2.03;1.80;;;;;;;15.78;43.30;94946.69;4992525;28;20038;-92
2021/12/18 04:24:22;;;;;;;3.20;2.05;;;;;;;15.74;43.18;94957.00;4973591;28;20047;-92
2021/12/18 04:26:57;;;;;;;2.70;1.90;;;;;;;15.80;43.29;94959.88;4989685;28;20054;-92
2021/12/18 04:29:22;;;;;;;2.25;1.88;;;;;;;15.69;43.50;94955.63;4975368;28;20069;-94
2021/12/18 04:31:56;;;;;;;2.80;1.77;;;;;;;15.79;43.30;94945.47;4964878;28;20038;-93
2021/12/18 04:34:23;;;;;;;3.83;1.80;;;;;;;15.77;43.13;94954.13;4973681;28;20077;-94
2021/12/18 04:36:50;;;;;;;2.78;2.13;;;;;;;15.81;43.02;94966.81;4984907;28;20039;-94
2021/12/18 04:39:16;;;;;;;4.25;1.98;;;;;;;15.76;43.35;94962.75;4935551;28;20039;-92
2021/12/18 04:41:49;;;;;;;2.50;2.05;;;;;;;15.78;43.48;94968.50;4938214;28;20445;-93
2021/12/18 04:44:16;;;;;;;2.80;1.88;;;;;;;15.73;43.22;94967.13;4916667;29;20144;-95
2021/12/18 04:46:41;;;;;;;2.45;2.05;;;;;;;15.80;43.27;94974.25;4930753;29;20092;-93
2021/12/18 04:49:09;;;;;;;3.70;1.85;;;;;;;15.80;43.27;94974.25;4921466;29;20053;-93
2021/12/18 04:51:34;;;;;;;2.47;1.65;;;;;;;15.77;43.00;94965.03;4926413;29;20467;-90
2021/12/18 04:53:59;;;;;;;2.58;1.80;;;;;;;15.82;43.05;94966.34;4895228;29;20040;-93
2021/12/18 04:56:25;;;;;;;3.28;2.15;;;;;;;15.77;43.35;94967.00;4879204;29;20040;-93
2021/12/18 04:58:51;;;;;;;2.10;1.60;;;;;;;15.75;43.26;94969.41;4910091;29;20044;-94
2021/12/18 05:01:19;;;;;;;2.58;2.38;;;;;;;15.71;43.03;94975.00;4896884;29;20040;-91
2021/12/18 05:03:45;;;;;;;2.50;1.98;;;;;;;15.68;43.22;94965.00;4915702;29;20044;-93
2021/12/18 05:06:12;;;;;;;2.75;1.85;;;;;;;15.69;43.39;94968.50;4898269;29;20484;-93
2021/12/18 05:08:37;;;;;;;2.78;1.95;;;;;;;15.74;43.33;94973.34;4898281;29;20092;-95
2021/12/18 05:11:03;;;;;;;1.92;1.73;;;;;;;15.75;43.38;94969.41;4894509;29;20032;-91
2021/12/18 05:13:28;;;;;;;4.38;1.80;;;;;;;15.77;43.11;94969.72;4898471;29;20048;-94
2021/12/18 05:15:53;;;;;;;2.67;1.95;;;;;;;15.75;43.17;94972.13;4891106;29;20081;-92
2021/12/18 05:18:34;;;;;;;2.85;1.92;;;;;;;15.71;43.06;94964.09;4890019;29;20057;-93
2021/12/18 05:21:07;;;;;;;2.22;1.55;;;;;;;15.74;43.09;94965.94;4905359;29;20135;-93
2021/12/18 05:23:32;;;;;;;2.40;1.88;;;;;;;15.74;43.23;94963.19;4918434;29;20055;-93
2021/12/18 05:25:58;;;;;;;2.95;1.67;;;;;;;15.75;43.02;94969.41;4916605;29;20443;-93
2021/12/18 05:28:23;;;;;;;2.50;1.80;;;;;;;15.75;42.99;94958.50;4947191;29;20047;-93
2021/12/18 05:30:58;;;;;;;2.45;1.98;;;;;;;15.70;43.05;94976.22;4949184;29;20040;-94
2021/12/18 05:33:23;;;;;;;1.75;1.60;;;;;;;15.69;43.10;94968.50;4945963;29;20035;-94
2021/12/18 05:35:48;;;;;;;2.10;1.63;;;;;;;15.80;43.02;94985.16;4947834;28;20577;-94
2021/12/18 05:38:14;;;;;;;1.80;1.35;;;;;;;15.79;43.31;94986.38;4946246;29;20467;-93
2021/12/18 05:40:39;;;;;;;2.38;1.63;;;;;;;15.76;43.09;94984.56;4946722;29;20055;-93
2021/12/18 05:43:17;;;;;;;2.83;2.03;;;;;;;15.75;43.02;94986.53;4946233;29;20051;-92
2021/12/18 05:45:43;;;;;;;2.22;1.67;;;;;;;15.74;43.32;94990.47;4948103;28;20039;-92
2021/12/18 05:48:10;;;;;;;4.15;1.55;;;;;;;15.70;43.04;94997.28;4949447;28;20043;-93
2021/12/18 05:50:35;;;;;;;2.58;2.00;;;;;;;15.67;43.35;94995.47;4949725;28;20199;-93
2021/12/18 05:53:01;;;;;;;2.88;1.85;;;;;;;15.71;43.34;94985.91;4947456;28;20050;-93
2021/12/18 05:55:30;;;;;;;2.80;1.55;;;;;;;15.70;43.05;94983.66;4967454;28;20101;-94
2021/12/18 05:57:55;;;;;;;1.55;1.42;;;;;;;15.69;43.28;94990.31;4984262;28;20034;-94
2021/12/18 06:00:21;;;;;;;2.10;1.65;;;;;;;15.73;43.18;94996.38;4973481;28;20034;-92
2021/12/18 06:02:46;;;;;;;1.95;1.48;;;;;;;15.70;43.14;94989.09;4984255;28;20351;-93
2021/12/18 06:05:12;;;;;;;1.98;1.60;;;;;;;15.67;43.23;94990.00;4988647;28;20073;-90
2021/12/18 06:07:51;;;;;;;2.97;1.92;;;;;;;15.72;43.17;95011.22;4986777;28;20038;-94
2021/12/18 06:10:16;;;;;;;2.25;1.63;;;;;;;15.73;42.90;95010.75;4966600;28;20034;-90
2021/12/18 06:12:42;;;;;;;2.50;1.70;;;;;;;15.74;43.23;95014.25;4970429;28;20038;-93
2021/12/18 06:15:08;;;;;;;2.17;1.60;;;;;;;15.74;42.93;95011.53;4969964;28;20035;-91
2021/12/18 06:17:34;;;;;;;2.65;1.63;;;;;;;15.70;43.55;95008.19;4980792;28;20054;-92
2021/12/18 06:19:59;;;;;;;2.50;1.67;;;;;;;15.71;43.15;95018.63;4986016;28;20038;-92
2021/12/18 06:22:25;;;;;;;2.25;1.88;;;;;;;15.74;43.17;95014.25;4985704;28;20042;-92
2021/12/18 06:24:50;;;;;;;2.33;1.65;;;;;;;15.73;43.05;95013.50;4968570;28;20050;-95
2021/12/18 06:27:16;;;;;;;2.53;2.10;;;;;;;15.76;42.98;95020.75;4984759;28;20049;-94
2021/12/18 06:29:42;;;;;;;2.55;1.83;;;;;;;15.75;43.19;95019.25;4986195;28;20521;-93
2021/12/18 06:32:07;;;;;;;2.28;1.70;;;;;;;15.74;43.34;95015.00;4985792;28;20529;-92
2021/12/18 06:34:33;;;;;;;2.50;1.90;;;;;;;15.72;43.03;95025.59;4968685;28;20042;-92
2021/12/18 06:36:58;;;;;;;2.00;1.80;;;;;;;15.72;43.05;95014.69;4984913;28;20564;-93
2021/12/18 06:39:24;;;;;;;2.13;1.58;;;;;;;15.74;43.16;95011.53;4967634;28;20418;-93
2021/12/18 06:41:49;;;;;;;2.22;1.70;;;;;;;15.69;42.93;95009.41;4968423;28;20050;-94
2021/12/18 06:44:14;;;;;;;2.78;1.90;;;;;;;15.70;43.27;95014.41;4965319;28;20039;-93
2021/12/18 06:46:40;;;;;;;2.22;1.98;;;;;;;15.71;43.08;95010.47;4979842;28;20042;-94
2021/12/18 06:49:07;;;;;;;2.40;1.63;;;;;;;15.72;43.15;95005.75;4980481;28;20394;-93
2021/12/18 06:51:33;;;;;;;2.25;1.67;;;;;;;15.72;43.14;95008.50;4976952;28;20148;-92
2021/12/18 06:53:58;;;;;;;2.28;1.70;;;;;;;15.77;42.81;95018.78;4967696;28;20441;-94
2021/12/18 06:56:24;;;;;;;2.88;1.80;;;;;;;15.74;42.93;95019.69;4951842;28;20026;-92
2021/12/18 06:58:49;;;;;;;2.05;1.70;;;;;;;15.69;43.26;95009.41;4985660;28;20564;-94
2021/12/18 07:01:14;;;;;;;1.92;1.67;;;;;;;15.71;43.25;95021.38;4984077;28;20042;-93
2021/12/18 07:03:40;;;;;;;1.88;1.52;;;;;;;15.69;43.13;95026.50;4995529;28;20022;-90
2021/12/18 07:06:05;;;;;;;2.88;1.60;;;;;;;15.78;42.81;95014.88;4985625;28;20093;-91
2021/12/18 07:08:31;;;;;;;1.67;1.30;;;;;;;15.69;42.84;95026.50;4970303;28;20046;-93
2021/12/18 07:10:56;;;;;;;2.90;1.90;;;;;;;15.71;43.22;95026.81;4984880;28;20031;-91
2021/12/18 07:13:22;;;;;;;2.60;1.98;;;;;;;15.70;42.93;95027.25;4984087;28;20545;-94
2021/12/18 07:15:48;;;;;;;2.03;1.58;;;;;;;15.70;43.33;95030.00;4967940;28;20092;-92
2021/12/18 07:18:13;;;;;;;1.42;1.23;;;;;;;15.75;42.93;95023.94;4952422;28;20034;-93
2021/12/18 07:20:39;;;;;;;2.22;1.67;;;;;;;15.76;42.89;95026.22;4969627;28;20437;-93
2021/12/18 07:23:04;;;;;;;3.22;2.17;;;;;;;15.80;43.14;95026.06;4951890;28;20664;-93
2021/12/18 07:25:30;;;;;;;2.63;2.15;;;;;;;15.75;42.94;95024.69;4968595;28;20046;-91
2021/12/18 07:27:57;;;;;;;3.63;1.80;;;;;;;15.74;43.33;95022.44;4951493;28;20050;-93
2021/12/18 07:30:22;;;;;;;2.90;2.05;;;;;;;15.73;43.12;95031.81;4968253;28;20034;-91
2021/12/18 07:32:48;;;;;;;2.83;1.73;;;;;;;15.74;42.90;95017.72;4952053;28;20073;-94
2021/12/18 07:35:14;;;;;;;2.75;2.08;;;;;;;15.76;43.01;95017.28;4964067;28;20038;-92
2021/12/18 07:37:39;;;;;;;3.40;2.03;;;;;;;15.69;42.66;95018.34;4957227;28;20209;-91
2021/12/18 07:40:06;;;;;;;2.28;1.80;;;;;;;15.72;42.85;95017.44;4983700;28;20042;-90
2021/12/18 07:42:33;;;;;;;2.83;1.75;;;;;;;15.74;42.88;95017.72;4984623;28;20143;-94
2021/12/18 07:44:59;;;;;;;2.83;2.05;;;;;;;15.71;42.94;95023.34;4997291;28;20030;-93
2021/12/18 07:47:24;;;;;;;2.95;1.80;;;;;;;15.74;42.86;95028.63;4970363;28;20110;-93
2021/12/18 07:49:50;;;;;;;1.85;1.60;;;;;;;15.75;42.77;95027.44;4981395;28;20057;-89
2021/12/18 07:52:15;;;;;;;3.53;1.80;;;;;;;15.75;42.63;95021.97;4984888;28;20034;-94
2021/12/18 07:54:41;;;;;;;2.15;1.52;;;;;;;15.76;43.03;95020.00;4979622;28;20039;-94
2021/12/18 07:57:06;;;;;;;2.55;1.63;;;;;;;15.77;42.56;95019.56;4969044;28;20038;-92
2021/12/18 07:59:32;;;;;;;2.17;1.58;;;;;;;15.75;42.75;95013.03;4968021;28;20042;-91
2021/12/18 08:01:57;;;;;;;1.75;1.63;;;;;;;15.70;42.86;95019.09;5000078;28;20106;-93
2021/12/18 08:04:23;;;;;;;2.45;1.80;;;;;;;15.71;43.11;95026.06;4968939;28;20441;-91
2021/12/18 08:06:48;;;;;;;2.22;1.83;;;;;;;15.76;42.67;95014.56;4985067;28;20042;-92
2021/12/18 08:09:14;;;;;;;2.83;1.90;;;;;;;15.71;43.04;95023.34;4958918;29;20078;-90
2021/12/18 08:11:39;;;;;;;2.67;2.05;;;;;;;15.70;43.06;95030.75;4930625;29;20039;-91
2021/12/18 08:14:05;;;;;;;2.20;1.73;;;;;;;15.73;42.84;95018.94;4928360;29;20106;-91
2021/12/18 08:16:31;;;;;;;1.95;1.52;;;;;;;15.73;43.12;95027.13;4945659;29;20568;-93
2021/12/18 08:18:57;;;;;;;2.30;1.90;;;;;;;15.76;42.88;95026.22;4914201;29;20050;-89
2021/12/18 08:21:22;;;;;;;2.78;2.10;;;;;;;15.74;42.83;95022.44;4914068;29;20047;-92
2021/12/18 08:23:48;;;;;;;2.08;1.80;;;;;;;15.70;42.87;95017.13;4931773;29;20063;-92
2021/12/18 08:26:13;;;;;;;1.83;1.52;;;;;;;15.73;42.77;95032.56;4921730;28;20039;-92
2021/12/18 08:28:38;;;;;;;3.00;1.75;;;;;;;15.76;43.12;95031.66;4934353;28;20043;-93
2021/12/18 08:31:04;;;;;;;1.95;1.60;;;;;;;15.79;42.63;95035.47;4947887;28;20051;-93
2021/12/18 08:33:30;;;;;;;2.85;1.60;;;;;;;15.77;42.70;95040.59;4985926;28;20042;-93
2021/12/18 08:35:55;;;;;;;2.22;1.85;;;;;;;15.76;42.78;95039.84;4968311;28;20039;-94
2021/12/18 08:38:20;;;;;;;2.42;1.98;;;;;;;15.77;42.78;95035.91;4950094;28;20043;-92
2021/12/18 08:40:46;;;;;;;2.88;2.00;;;;;;;15.77;42.98;95035.91;4952042;28;20043;-92
2021/12/18 08:43:11;;;;;;;2.08;1.55;;;;;;;15.75;42.61;95040.31;4961194;28;20040;-90
2021/12/18 08:45:38;;;;;;;4.47;1.92;;;;;;;15.75;43.16;95034.84;4985113;28;20039;-93
2021/12/18 08:48:04;;;;;;;3.97;1.90;;;;;;;15.78;42.86;95039.41;4965850;28;20043;-90
2021/12/18 08:50:29;;;;;;;2.28;1.90;;;;;;;15.80;42.88;95034.25;4960606;28;20054;-90
2021/12/18 08:52:55;;;;;;;2.25;1.80;;;;;;;15.81;42.76;95035.75;4952317;28;20055;-91
2021/12/18 08:55:21;;;;;;;2.03;1.73;;;;;;;15.81;42.81;95041.19;4950389;28;20046;-95
2021/12/18 08:57:46;;;;;;;2.22;1.73;;;;;;;15.79;42.90;95037.44;4952462;28;20044;-92
2021/12/18 09:00:14;;;;;;;1.98;1.52;;;;;;;15.78;42.93;95036.66;4950462;28;20475;-93
2021/12/18 09:02:40;;;;;;;2.83;1.80;;;;;;;15.79;42.95;95037.44;4966438;28;20047;-93
2021/12/18 09:05:14;;;;;;;3.83;1.92;;;;;;;15.72;42.78;95033.03;4967725;28;20035;-89
2021/12/18 09:07:40;;;;;;;1.70;1.48;;;;;;;15.80;42.52;95026.06;4967358;28;20066;-92
2021/12/18 09:10:07;;;;;;;2.50;1.45;;;;;;;15.79;42.87;95032.75;4957391;28;20034;-93
2021/12/18 09:12:33;;;;;;;2.30;1.50;;;;;;;15.75;42.87;95038.34;4964808;28;20042;-94
2021/12/18 09:15:00;;;;;;;2.88;2.00;;;;;;;15.75;42.92;95037.56;4938560;29;20070;-92
2021/12/18 09:17:25;;;;;;;2.03;1.40;;;;;;;15.75;42.91;95032.88;4933327;28;20035;-95
2021/12/18 09:19:51;;;;;;;3.15;2.42;;;;;;;15.77;42.77;95038.63;4946996;29;20601;-93
2021/12/18 09:22:17;;;;;;;4.55;1.48;;;;;;;15.81;42.94;95032.25;4962503;28;20067;-92
2021/12/18 09:24:43;;;;;;;2.70;2.05;;;;;;;15.74;42.71;95034.09;4963190;28;20073;-92
2021/12/18 09:27:08;;;;;;;2.67;1.80;;;;;;;15.71;43.19;95026.81;4977743;28;20043;-92
2021/12/18 09:29:33;;;;;;;4.05;2.15;;;;;;;15.75;42.90;95021.97;4975124;28;20079;-93
2021/12/18 09:31:59;;;;;;;3.17;1.65;;;;;;;15.77;43.08;95024.25;4982679;28;20526;-91
2021/12/18 09:34:34;;;;;;;4.15;1.83;;;;;;;15.74;42.82;95027.88;4981817;28;20039;-94
2021/12/18 09:36:59;;;;;;;3.83;2.10;;;;;;;15.71;42.93;95031.50;4948331;29;20039;-94
2021/12/18 09:39:24;;;;;;;3.75;1.70;;;;;;;15.67;43.22;95023.47;4946059;29;20038;-92
2021/12/18 09:41:50;;;;;;;3.38;2.10;;;;;;;15.66;43.04;95008.34;4930981;29;20062;-90
2021/12/18 09:44:27;;;;;;;4.03;2.13;;;;;;;15.69;42.82;95014.84;4945960;29;20039;-93
2021/12/18 09:46:53;;;;;;;4.55;2.10;;;;;;;15.74;42.91;95020.47;4944549;28;20043;-93
2021/12/18 09:49:21;;;;;;;3.05;2.30;;;;;;;15.71;42.83;95015.91;4964130;28;20568;-91
2021/12/18 09:51:46;;;;;;;2.88;2.42;;;;;;;15.75;42.70;95015.75;4975468;28;20046;-91
2021/12/18 09:54:12;;;;;;;2.08;1.45;;;;;;;15.73;42.79;95008.03;4995708;28;20448;-92
2021/12/18 09:56:38;;;;;;;3.63;1.73;;;;;;;15.80;42.88;95017.91;4982181;28;20050;-93
2021/12/18 09:59:04;;;;;;;2.80;2.10;;;;;;;15.76;42.95;95014.56;4998939;28;20047;-92
2021/12/18 10:01:29;;;;;;;2.70;1.73;;;;;;;15.76;43.00;95012.59;4985003;28;20050;-92
2021/12/18 10:03:57;;;;;;;3.78;2.05;;;;;;;15.83;42.87;95002.56;4974091;28;20038;-94
2021/12/18 10:06:38;;;;;;;2.53;1.70;;;;;;;15.76;42.76;95012.59;4997525;28;20233;-92
2021/12/18 10:09:12;;;;;;;2.00;1.58;;;;;;;15.74;42.77;95001.38;4965438;28;20045;-93
2021/12/18 10:12:01;;;;;;;2.63;1.80;;;;;;;15.74;42.79;95011.53;4964840;28;20089;-92
2021/12/18 10:14:40;;;;;;;2.45;1.90;;;;;;;15.82;42.44;95003.78;4980284;28;20049;-93
2021/12/18 10:17:19;;;;;;;3.22;1.95;;;;;;;15.77;42.98;95002.44;4980776;28;20041;-90
2021/12/18 10:19:44;;;;;;;2.72;1.88;;;;;;;15.78;42.89;94984.88;4964469;28;20046;-93
2021/12/18 10:22:10;;;;;;;3.42;1.90;;;;;;;15.77;42.85;94991.53;4979913;28;20532;-93
2021/12/18 10:24:40;;;;;;;2.83;1.88;;;;;;;15.77;42.65;94996.97;4965766;28;20101;-91
2021/12/18 10:27:21;;;;;;;2.75;1.90;;;;;;;15.79;42.69;94989.09;4979481;28;20106;-94
2021/12/18 10:30:19;;;;;;;2.88;2.05;;;;;;;15.80;42.82;94992.59;4965456;28;20030;-92
2021/12/18 10:32:54;;;;;;;4.63;2.38;;;;;;;15.77;42.51;94984.13;4946403;28;20053;-93
2021/12/18 10:35:20;;;;;;;3.58;1.95;;;;;;;15.77;42.86;94970.47;4959101;28;20049;-95
2021/12/18 10:37:45;;;;;;;4.63;2.15;;;;;;;15.82;42.75;94980.00;4944162;28;20043;-90
2021/12/18 10:40:11;;;;;;;6.00;2.65;;;;;;;15.81;42.87;94981.19;4944732;28;20035;-93
2021/12/18 10:42:40;;;;;;;3.85;2.15;;;;;;;15.80;42.50;94973.50;4925439;29;20035;-91
2021/12/18 10:45:12;;;;;;;5.78;1.95;;;;;;;15.79;42.54;94977.44;4908671;28;20107;-91
2021/12/18 10:47:49;;;;;;;5.15;2.13;;;;;;;15.78;42.68;94963.06;4909103;29;20118;-91
2021/12/18 10:50:32;;;;;;;3.22;2.10;;;;;;;15.78;42.83;94957.59;4913985;28;20046;-95
2021/12/18 10:52:59;;;;;;;4.22;1.90;;;;;;;15.75;42.69;94953.81;4977643;28;20125;-93
2021/12/18 10:55:29;;;;;;;5.05;2.03;;;;;;;15.73;42.92;94945.34;4960117;28;20093;-93
2021/12/18 10:57:55;;;;;;;5.03;2.20;;;;;;;15.80;42.96;94941.53;4944175;28;20505;-91
2021/12/18 11:00:31;;;;;;;4.30;2.17;;;;;;;15.74;43.02;94949.56;4943726;28;20126;-93
2021/12/18 11:02:57;;;;;;;3.63;1.88;;;;;;;15.74;43.11;94943.38;4946445;28;20098;-93
2021/12/18 11:05:22;;;;;;;9.85;2.83;;;;;;;15.72;42.98;94943.81;4924225;28;20043;-94
2021/12/18 11:07:52;;;;;;;6.38;2.45;;;;;;;15.79;42.74;94937.31;4939285;28;20035;-93
2021/12/18 11:10:54;;;;;;;6.57;2.70;;;;;;;15.77;42.77;94940.47;4939417;28;20125;-92
2021/12/18 11:15:58;;;;;;;10.38;3.00;;;;;;;15.83;42.84;94923.50;4961209;28;20129;-94
2021/12/18 11:18:23;;;;;;;10.55;2.85;;;;;;;15.82;42.95;94930.91;4938173;28;20035;-93
2021/12/18 11:20:50;;;;;;;7.47;3.17;;;;;;;15.80;42.38;94932.59;4941754;28;20371;-91
2021/12/18 11:23:16;;;;;;;7.80;2.55;;;;;;;15.80;42.85;94930.63;4960006;28;20084;-92
2021/12/18 11:25:42;;;;;;;7.22;2.97;;;;;;;15.82;42.59;94932.88;4969890;28;20027;-92
2021/12/18 11:28:07;;;;;;;7.60;2.63;;;;;;;15.81;42.74;94923.19;4974659;28;20034;-93
2021/12/18 11:30:34;;;;;;;9.98;3.05;;;;;;;15.78;42.67;94916.72;4976099;28;20169;-94
2021/12/18 11:32:59;;;;;;;9.60;2.90;;;;;;;15.80;42.25;94922.47;4971792;28;20038;-93
2021/12/18 11:35:25;;;;;;;5.53;2.35;;;;;;;15.79;42.50;94915.50;4974509;28;20066;-93
2021/12/18 11:37:54;;;;;;;8.40;2.85;;;;;;;15.74;42.63;94910.66;4959253;28;20034;-94
2021/12/18 11:40:23;;;;;;;7.15;2.85;;;;;;;15.75;42.76;94901.25;4958304;28;20522;-92
2021/12/18 11:42:49;;;;;;;6.38;3.25;;;;;;;15.78;42.48;94900.34;4975183;28;20108;-92
2021/12/18 11:45:14;;;;;;;6.15;2.63;;;;;;;15.77;42.74;94891.41;4991053;28;20035;-92
2021/12/18 11:47:41;;;;;;;8.73;2.88;;;;;;;15.74;42.82;94897.00;4974185;28;20031;-93
2021/12/18 11:50:21;;;;;;;7.10;3.00;;;;;;;15.75;42.78;94891.09;4989032;28;20121;-92
2021/12/18 11:53:06;;;;;;;10.50;3.05;;;;;;;15.76;42.72;94884.44;4972029;28;20043;-91
2021/12/18 11:55:31;;;;;;;14.73;3.78;;;;;;;15.77;42.74;94882.47;4947010;28;20046;-94
2021/12/18 11:58:02;;;;;;;8.80;3.22;;;;;;;15.78;42.59;94883.97;4982668;28;20146;-93
2021/12/18 12:00:33;;;;;;;9.52;4.07;;;;;;;15.77;42.31;94875.06;4939129;28;20046;-94
2021/12/18 12:02:58;;;;;;;7.68;3.55;;;;;;;15.83;42.57;94879.88;4958476;28;20078;-93
2021/12/18 12:05:40;;;;;;;11.77;3.03;;;;;;;15.84;42.77;94873.94;4972667;28;20058;-94
2021/12/18 12:08:42;;;;;;;13.57;4.10;;;;;;;15.81;42.79;94876.84;4973036;28;20038;-91
2021/12/18 12:11:16;;;;;;;9.77;3.80;;;;;;;15.76;42.71;94872.78;4988650;28;20070;-92
2021/12/18 12:14:08;;;;;;;8.57;3.45;;;;;;;15.76;42.63;94872.78;4975787;28;20037;-93
2021/12/18 12:16:43;;;;;;;9.55;3.20;;;;;;;15.74;42.68;94867.78;4982220;28;20034;-93
2021/12/18 12:19:10;;;;;;;10.50;3.90;;;;;;;15.75;42.41;94863.84;4988989;28;20042;-92
2021/12/18 12:21:44;;;;;;;9.23;2.88;;;;;;;15.74;42.73;94867.78;4973837;28;20104;-94
2021/12/18 12:24:10;;;;;;;11.10;3.58;;;;;;;15.80;42.59;94870.66;4973230;28;20034;-91